Artie, West Virginia
Current Conditions -  °F | °C
As of 12:51 AM on Thursday 29 Jan 2015 (Local Time) from KBKW Reporting Station
Clear Clear  
Wind Chill: 17°   Ceiling: Unl
Heat Index: 27°   Visibility: 10mi
Dew Point: 12°   Wind: 10mph
Humidity: 53%   Direction: 140°SE
Pressure: 30.17"   Gusts: NA
Location:  37.93°N, 81.36°W
Report Text: KBKW 290551Z AUTO 14009KT 10SM CLR M03/M11 A3017 RMK AO2 SLP254 T10281111 11028 21067 58013
Loading
Personal Weather Stations






























Interactive Weather Map New forecast layout! Learn more

10-Day Weather Forecast

Advertisements
Track Severe Weather on mobile